createdAt,value
2023-03-26T00:00:12.863Z,8.38
2023-03-26T00:02:41.342Z,7.68
2023-03-26T00:05:14.562Z,8.30
2023-03-26T00:07:42.952Z,7.28
2023-03-26T00:10:12.184Z,7.50
2023-03-26T00:12:40.508Z,7.55
2023-03-26T00:15:10.729Z,8.65
2023-03-26T00:17:39.081Z,8.45
2023-03-26T00:20:11.430Z,7.43
2023-03-26T00:22:40.440Z,7.47
2023-03-26T00:25:09.729Z,6.85
2023-03-26T00:27:38.220Z,7.28
2023-03-26T00:30:08.764Z,6.80
2023-03-26T00:32:37.111Z,6.95
2023-03-26T00:35:06.430Z,7.35
2023-03-26T00:37:36.102Z,6.53
2023-03-26T00:40:07.741Z,7.70
2023-03-26T00:42:36.412Z,6.45
2023-03-26T00:45:05.578Z,6.80
2023-03-26T00:47:33.965Z,7.60
2023-03-26T00:50:04.068Z,7.25
2023-03-26T00:52:32.360Z,7.35
2023-03-26T00:55:02.400Z,6.40
2023-03-26T00:57:35.809Z,6.63
2023-03-26T01:00:16.586Z,7.32
2023-03-26T01:02:45.432Z,5.80
2023-03-26T01:05:48.817Z,5.90
2023-03-26T01:08:37.114Z,6.57
2023-03-26T01:11:14.021Z,7.13
2023-03-26T01:13:48.603Z,5.47
2023-03-26T01:16:28.228Z,6.63
2023-03-26T01:18:58.866Z,5.78
2023-03-26T01:21:30.508Z,6.15
2023-03-26T01:24:02.650Z,7.25
2023-03-26T01:26:48.242Z,5.65
2023-03-26T01:29:25.220Z,6.50
2023-03-26T01:32:09.979Z,6.80
2023-03-26T01:34:50.978Z,7.05
2023-03-26T01:37:27.239Z,6.00
2023-03-26T01:40:05.012Z,6.82
2023-03-26T01:42:39.113Z,6.40
2023-03-26T01:45:13.023Z,7.25
2023-03-26T01:47:43.694Z,6.70
2023-03-26T01:50:12.474Z,7.35
2023-03-26T01:52:41.235Z,5.90
2023-03-26T01:55:12.750Z,6.72
2023-03-26T01:57:55.968Z,6.50
2023-03-26T02:00:30.542Z,7.95
2023-03-26T02:03:18.880Z,6.68
2023-03-26T02:05:56.623Z,6.07
2023-03-26T02:08:35.502Z,7.03
2023-03-26T02:11:11.884Z,7.50
2023-03-26T02:13:41.660Z,7.75
2023-03-26T02:16:14.216Z,7.03
2023-03-26T02:18:43.428Z,7.25
2023-03-26T02:21:20.136Z,8.07
2023-03-26T02:23:57.739Z,6.53
2023-03-26T02:26:27.543Z,6.75
2023-03-26T02:28:55.906Z,7.28
2023-03-26T02:31:26.445Z,6.68
2023-03-26T02:33:55.667Z,6.28
2023-03-26T02:36:27.971Z,7.30
2023-03-26T02:38:58.150Z,6.57
2023-03-26T02:41:27.996Z,7.28
2023-03-26T02:43:56.373Z,6.70
2023-03-26T02:46:24.730Z,6.85
2023-03-26T02:48:53.040Z,6.38
2023-03-26T02:51:21.405Z,6.82
2023-03-26T02:53:49.772Z,7.03
2023-03-26T02:56:18.071Z,5.97
2023-03-26T02:58:48.393Z,6.28
2023-03-26T03:01:18.545Z,6.53
2023-03-26T03:03:48.525Z,7.22
2023-03-26T03:06:20.044Z,6.45
2023-03-26T03:08:48.475Z,7.28
2023-03-26T03:11:21.962Z,6.18
2023-03-26T03:13:52.547Z,6.72
2023-03-26T03:16:21.401Z,6.90
2023-03-26T03:18:54.582Z,8.32
2023-03-26T03:21:23.428Z,6.93
2023-03-26T03:23:51.966Z,7.20
2023-03-26T03:26:28.048Z,6.65
2023-03-26T03:28:58.966Z,7.40
2023-03-26T03:31:28.536Z,6.60
2023-03-26T03:33:56.979Z,6.95
2023-03-26T03:36:27.680Z,7.50
2023-03-26T03:38:56.170Z,6.90
2023-03-26T03:41:24.601Z,6.78
2023-03-26T03:43:52.923Z,6.55
2023-03-26T03:46:22.616Z,7.60
2023-03-26T03:48:51.028Z,6.75
2023-03-26T03:51:19.770Z,6.38
2023-03-26T03:53:49.389Z,7.07
2023-03-26T03:56:19.328Z,6.22
2023-03-26T03:58:47.727Z,7.82
2023-03-26T04:01:17.037Z,5.93
2023-03-26T04:03:47.169Z,6.22
2023-03-26T04:06:19.004Z,6.55
2023-03-26T04:08:47.933Z,6.70
2023-03-26T04:11:16.321Z,7.13
2023-03-26T04:13:44.976Z,7.35
2023-03-26T04:16:13.294Z,5.85
2023-03-26T04:18:41.936Z,7.40
2023-03-26T04:21:12.775Z,6.75
2023-03-26T04:23:42.360Z,6.45
2023-03-26T04:26:16.832Z,6.97
2023-03-26T04:28:49.751Z,6.55
2023-03-26T04:31:24.719Z,6.30
2023-03-26T04:33:55.936Z,6.30
2023-03-26T04:36:29.852Z,6.53
2023-03-26T04:39:02.424Z,6.43
2023-03-26T04:41:32.434Z,7.18
2023-03-26T04:44:02.107Z,6.97
2023-03-26T04:46:33.465Z,6.97
2023-03-26T04:49:02.336Z,6.20
2023-03-26T04:51:39.738Z,5.93
2023-03-26T04:54:09.666Z,6.85
2023-03-26T04:56:49.641Z,6.80
2023-03-26T04:59:26.585Z,7.72
2023-03-26T05:01:55.330Z,6.45
2023-03-26T05:04:23.743Z,6.78
2023-03-26T05:06:53.965Z,7.40
2023-03-26T05:09:22.534Z,7.95
2023-03-26T05:11:51.263Z,7.82
2023-03-26T05:14:19.932Z,7.68
2023-03-26T05:16:50.481Z,7.60
2023-03-26T05:19:18.868Z,7.05
2023-03-26T05:21:47.439Z,6.45
2023-03-26T05:24:17.114Z,7.22
2023-03-26T05:26:45.510Z,7.82
2023-03-26T05:29:20.763Z,6.43
2023-03-26T05:31:49.492Z,6.95
2023-03-26T05:34:17.836Z,6.43
2023-03-26T05:36:46.111Z,7.07
2023-03-26T05:39:14.562Z,7.10
2023-03-26T05:41:44.339Z,7.10
2023-03-26T05:44:12.750Z,6.70
2023-03-26T05:46:41.249Z,6.88
2023-03-26T05:49:09.511Z,5.88
2023-03-26T05:51:37.858Z,6.90
2023-03-26T05:54:06.363Z,6.50
2023-03-26T05:56:36.066Z,6.70
2023-03-26T05:59:06.774Z,7.00
2023-03-26T06:01:35.100Z,6.03
2023-03-26T06:04:03.538Z,7.88
2023-03-26T06:06:33.282Z,7.35
2023-03-26T06:09:02.961Z,7.60
2023-03-26T06:11:32.972Z,7.38
2023-03-26T06:14:02.123Z,6.90
2023-03-26T06:16:31.881Z,7.93
2023-03-26T06:19:00.587Z,7.60
2023-03-26T06:21:30.243Z,7.90
2023-03-26T06:23:58.531Z,6.32
2023-03-26T06:26:26.826Z,7.05
2023-03-26T06:28:55.358Z,7.55
2023-03-26T06:31:23.845Z,7.57
2023-03-26T06:33:53.541Z,7.80
2023-03-26T06:36:21.914Z,8.02
2023-03-26T06:38:50.363Z,7.82
2023-03-26T06:41:18.670Z,7.75
2023-03-26T06:43:47.000Z,7.57
2023-03-26T06:46:15.541Z,7.85
2023-03-26T06:48:44.396Z,7.40
2023-03-26T06:51:14.149Z,7.13
2023-03-26T06:53:42.674Z,7.28
2023-03-26T06:56:11.659Z,7.22
2023-03-26T06:58:40.306Z,5.90
2023-03-26T07:01:08.835Z,6.82
2023-03-26T07:03:37.222Z,6.90
2023-03-26T07:06:06.372Z,5.13
2023-03-26T07:08:36.224Z,5.10
2023-03-26T07:11:04.654Z,5.40
2023-03-26T07:13:32.945Z,5.00
2023-03-26T07:16:01.457Z,4.70
2023-03-26T07:18:29.894Z,4.68
2023-03-26T07:20:58.906Z,4.55
2023-03-26T07:23:27.981Z,5.78
2023-03-26T07:25:58.893Z,5.85
2023-03-26T07:28:35.359Z,5.18
2023-03-26T07:31:20.003Z,5.05
2023-03-26T07:34:02.453Z,4.93
2023-03-26T07:36:37.461Z,4.80
2023-03-26T07:39:20.081Z,5.15
2023-03-26T07:41:54.909Z,5.63
2023-03-26T07:44:46.568Z,4.53
2023-03-26T07:47:26.225Z,4.40
2023-03-26T07:49:57.869Z,5.00
2023-03-26T07:52:28.371Z,5.85
2023-03-26T07:54:57.491Z,4.90
2023-03-26T07:57:40.631Z,5.72
2023-03-26T08:00:16.244Z,5.68
2023-03-26T08:03:05.895Z,6.68
2023-03-26T08:05:38.027Z,5.45
2023-03-26T08:08:16.544Z,6.38
2023-03-26T08:11:03.746Z,6.25
2023-03-26T08:13:51.166Z,6.35
2023-03-26T08:16:26.535Z,5.93
2023-03-26T08:19:05.069Z,5.88
2023-03-26T08:21:40.305Z,6.88
2023-03-26T08:24:16.301Z,7.00
2023-03-26T08:26:51.411Z,5.88
2023-03-26T08:29:28.070Z,6.57
2023-03-26T08:31:57.561Z,8.23
2023-03-26T08:34:25.982Z,8.40
2023-03-26T08:36:54.386Z,8.82
2023-03-26T08:39:23.414Z,8.35
2023-03-26T08:42:36.083Z,7.05
2023-03-26T08:45:54.769Z,6.90
2023-03-26T08:48:58.041Z,6.13
2023-03-26T08:52:09.042Z,6.75
2023-03-26T08:55:24.999Z,6.47
2023-03-26T08:58:55.837Z,5.50
2023-03-26T09:02:08.721Z,6.60
2023-03-26T09:05:21.464Z,5.63
2023-03-26T09:08:59.145Z,5.70
2023-03-26T09:12:32.695Z,6.78
2023-03-26T09:15:36.457Z,5.82
2023-03-26T09:19:07.421Z,6.30
2023-03-26T09:22:20.028Z,6.70
2023-03-26T09:25:23.875Z,6.63
2023-03-26T09:28:40.087Z,5.85
2023-03-26T09:31:28.051Z,5.97
2023-03-26T09:34:01.874Z,5.13
2023-03-26T09:37:15.612Z,4.97
2023-03-26T09:40:01.697Z,5.68
2023-03-26T09:42:42.280Z,4.30
2023-03-26T09:45:40.255Z,4.00
2023-03-26T09:48:46.332Z,4.65
2023-03-26T09:51:33.560Z,4.95
2023-03-26T09:54:48.212Z,4.10
2023-03-26T09:57:36.625Z,3.55
2023-03-26T10:00:25.514Z,3.38
2023-03-26T10:03:31.813Z,3.50
2023-03-26T10:06:14.240Z,3.22
2023-03-26T10:09:04.609Z,3.08
2023-03-26T10:11:58.207Z,3.33
2023-03-26T10:14:36.372Z,3.47
2023-03-26T10:17:20.480Z,2.90
2023-03-26T10:20:08.716Z,2.70
2023-03-26T10:22:56.736Z,2.47
2023-03-26T10:25:44.817Z,3.33
2023-03-26T10:28:43.743Z,3.42
2023-03-26T10:31:44.239Z,1.95
2023-03-26T10:34:30.588Z,2.20
2023-03-26T10:37:08.756Z,1.80
2023-03-26T10:40:06.961Z,2.20
2023-03-26T10:42:51.955Z,2.30
2023-03-26T10:45:40.504Z,2.53
2023-03-26T10:48:36.774Z,2.95
2023-03-26T10:51:48.696Z,3.28
2023-03-26T10:54:31.315Z,2.47
2023-03-26T10:57:02.347Z,4.60
2023-03-26T10:59:30.802Z,2.97
2023-03-26T11:02:30.137Z,3.28
2023-03-26T11:05:23.723Z,2.30
2023-03-26T11:07:58.967Z,2.25
2023-03-26T11:10:49.110Z,3.67
2023-03-26T11:13:28.503Z,4.75
2023-03-26T11:16:03.223Z,4.78
2023-03-26T11:18:42.389Z,4.72
2023-03-26T11:21:20.828Z,5.22
2023-03-26T11:24:10.455Z,6.38
2023-03-26T11:26:50.437Z,7.63
2023-03-26T11:29:38.978Z,7.30
2023-03-26T11:32:12.087Z,7.45
2023-03-26T11:34:47.086Z,7.88
2023-03-26T11:37:26.708Z,6.70
2023-03-26T11:39:57.964Z,8.48
2023-03-26T11:42:26.917Z,7.75
2023-03-26T11:44:59.431Z,7.80
2023-03-26T11:47:41.862Z,7.75
2023-03-26T11:50:18.228Z,7.90
2023-03-26T11:52:48.178Z,6.70
2023-03-26T11:55:16.931Z,6.20
2023-03-26T11:57:51.787Z,6.93
2023-03-26T12:00:27.631Z,5.78
2023-03-26T12:02:59.799Z,6.65
2023-03-26T12:05:33.609Z,5.97
2023-03-26T12:08:17.450Z,5.88
2023-03-26T12:10:46.289Z,5.63
2023-03-26T12:13:31.306Z,5.50
2023-03-26T12:16:04.433Z,4.82
2023-03-26T12:18:33.159Z,5.35
2023-03-26T12:21:09.379Z,5.53
2023-03-26T12:23:47.434Z,5.22
2023-03-26T12:26:19.178Z,6.28
2023-03-26T12:28:50.043Z,4.80
2023-03-26T12:31:20.396Z,5.57
2023-03-26T12:34:07.625Z,5.88
2023-03-26T12:36:36.608Z,5.53
2023-03-26T12:40:07.911Z,5.32
2023-03-26T12:44:55.341Z,4.35
2023-03-26T12:45:18.145Z,4.95
2023-03-26T12:48:00.712Z,5.88
2023-03-26T12:50:51.188Z,6.30
2023-03-26T12:53:47.899Z,5.00
2023-03-26T12:56:22.806Z,5.43
2023-03-26T12:59:11.795Z,5.85
2023-03-26T13:01:55.563Z,5.32
2023-03-26T13:05:05.069Z,6.38
2023-03-26T13:07:55.660Z,6.05
2023-03-26T13:10:51.935Z,5.40
2023-03-26T13:13:48.128Z,6.20
2023-03-26T13:16:31.610Z,5.70
2023-03-26T13:19:04.414Z,4.55
2023-03-26T13:21:45.518Z,4.88
2023-03-26T13:24:29.877Z,4.30
2023-03-26T13:27:13.537Z,4.40
2023-03-26T13:29:56.692Z,4.60
2023-03-26T13:32:40.993Z,4.13
2023-03-26T13:35:27.344Z,5.00
2023-03-26T13:38:03.401Z,3.63
2023-03-26T13:40:44.763Z,4.28
2023-03-26T13:43:29.772Z,3.17
2023-03-26T13:46:08.733Z,4.25
2023-03-26T13:48:46.780Z,3.65
2023-03-26T13:51:22.937Z,3.88
2023-03-26T13:53:56.768Z,3.75
2023-03-26T13:56:32.287Z,3.40
2023-03-26T13:59:05.432Z,7.05
2023-03-26T14:01:43.798Z,4.47
2023-03-26T14:04:21.576Z,5.38
2023-03-26T14:06:57.610Z,4.57
2023-03-26T14:09:32.709Z,3.15
2023-03-26T14:12:23.211Z,3.17
2023-03-26T14:14:56.592Z,2.97
2023-03-26T14:17:34.403Z,2.67
2023-03-26T14:20:44.725Z,2.90
2023-03-26T14:24:03.016Z,2.47
2023-03-26T14:26:59.646Z,2.28
2023-03-26T14:29:39.071Z,2.33
2023-03-26T14:32:47.561Z,2.97
2023-03-26T14:35:35.256Z,2.55
2023-03-26T14:38:54.922Z,2.30
2023-03-26T14:41:27.156Z,2.45
2023-03-26T14:44:48.477Z,3.08
2023-03-26T14:47:19.596Z,2.38
2023-03-26T14:50:26.699Z,4.72
2023-03-26T14:53:01.394Z,3.75
2023-03-26T14:56:15.548Z,2.72
2023-03-26T14:59:44.417Z,3.45
2023-03-26T15:03:38.762Z,1.92
2023-03-26T15:06:59.706Z,2.38
2023-03-26T15:10:10.180Z,2.22
2023-03-26T15:12:53.429Z,2.15
2023-03-26T15:16:13.918Z,2.92
2023-03-26T15:19:42.583Z,2.55
2023-03-26T15:22:55.491Z,2.47
2023-03-26T15:26:31.050Z,2.67
2023-03-26T15:29:38.901Z,2.60
2023-03-26T15:32:52.775Z,2.35
2023-03-26T15:35:47.347Z,2.25
2023-03-26T15:39:18.534Z,2.60
2023-03-26T15:41:56.396Z,3.38
2023-03-26T15:44:55.061Z,2.15
2023-03-26T15:47:56.030Z,2.33
2023-03-26T15:50:42.180Z,2.97
2023-03-26T15:53:30.454Z,3.00
2023-03-26T15:56:28.239Z,2.50
2023-03-26T15:59:09.073Z,2.80
2023-03-26T16:02:02.479Z,2.60
2023-03-26T16:04:50.787Z,2.05
2023-03-26T16:07:52.902Z,4.15
2023-03-26T16:10:29.210Z,3.47
2023-03-26T16:13:26.280Z,3.03
2023-03-26T16:15:59.610Z,3.05
2023-03-26T16:18:35.920Z,3.20
2023-03-26T16:21:40.785Z,3.08
2023-03-26T16:24:28.330Z,2.13
2023-03-26T16:27:32.539Z,2.55
2023-03-26T16:30:33.186Z,2.92
2023-03-26T16:33:16.058Z,2.50
2023-03-26T16:36:07.302Z,3.65
2023-03-26T16:38:52.303Z,2.40
2023-03-26T16:41:25.497Z,2.97
2023-03-26T16:44:13.858Z,3.00
2023-03-26T16:47:00.112Z,3.00
2023-03-26T16:50:13.205Z,3.08
2023-03-26T16:52:52.072Z,2.70
2023-03-26T16:55:29.952Z,2.83
2023-03-26T16:58:15.264Z,2.72
2023-03-26T17:00:49.964Z,3.17
2023-03-26T17:03:48.431Z,2.60
2023-03-26T17:06:56.711Z,3.10
2023-03-26T17:09:35.343Z,2.63
2023-03-26T17:12:18.701Z,2.47
2023-03-26T17:15:07.619Z,2.20
2023-03-26T17:17:54.678Z,2.17
2023-03-26T17:20:46.329Z,2.30
2023-03-26T17:23:39.673Z,2.42
2023-03-26T17:26:18.951Z,3.13
2023-03-26T17:29:05.118Z,2.40
2023-03-26T17:31:42.748Z,3.45
2023-03-26T17:34:35.554Z,3.05
2023-03-26T17:37:06.852Z,2.50
2023-03-26T17:40:47.043Z,3.67
2023-03-26T17:43:43.873Z,2.70
2023-03-26T17:46:35.613Z,2.25
2023-03-26T17:49:17.793Z,2.58
2023-03-26T17:51:52.336Z,2.53
2023-03-26T17:54:29.596Z,2.25
2023-03-26T17:57:05.170Z,2.90
2023-03-26T17:59:34.055Z,3.13
2023-03-26T18:02:07.037Z,2.60
2023-03-26T18:04:39.294Z,2.58
2023-03-26T18:07:41.863Z,2.92
2023-03-26T18:10:33.446Z,2.88
2023-03-26T18:13:23.642Z,3.03
2023-03-26T18:16:09.564Z,2.40
2023-03-26T18:18:46.842Z,1.90
2023-03-26T18:21:29.483Z,2.10
2023-03-26T18:24:00.439Z,2.85
2023-03-26T18:26:37.638Z,3.20
2023-03-26T18:29:24.072Z,2.25
2023-03-26T18:31:58.312Z,2.08
2023-03-26T18:34:30.948Z,1.92
2023-03-26T18:37:15.773Z,3.00
2023-03-26T18:39:45.958Z,2.58
2023-03-26T18:42:23.737Z,2.30
2023-03-26T18:44:59.722Z,2.80
2023-03-26T18:47:31.685Z,2.53
2023-03-26T18:50:01.400Z,2.25
2023-03-26T18:52:31.528Z,2.80
2023-03-26T18:55:01.496Z,1.92
2023-03-26T18:57:31.470Z,2.45
2023-03-26T19:00:18.590Z,2.15
2023-03-26T19:02:52.605Z,2.35
2023-03-26T19:05:24.592Z,2.53
2023-03-26T19:07:54.329Z,2.22
2023-03-26T19:10:25.189Z,2.28
2023-03-26T19:12:58.174Z,1.98
2023-03-26T19:15:30.804Z,2.58
2023-03-26T19:18:07.146Z,2.75
2023-03-26T19:20:42.582Z,2.63
2023-03-26T19:23:16.408Z,4.53
2023-03-26T19:25:48.613Z,4.15
2023-03-26T19:28:22.015Z,2.08
2023-03-26T19:30:57.778Z,1.88
2023-03-26T19:33:35.044Z,2.10
2023-03-26T19:36:06.926Z,2.33
2023-03-26T19:38:44.271Z,2.20
2023-03-26T19:41:23.421Z,2.10
2023-03-26T19:43:55.850Z,1.60
2023-03-26T19:46:27.979Z,1.90
2023-03-26T19:48:59.068Z,2.70
2023-03-26T19:51:34.268Z,1.88
2023-03-26T19:54:06.325Z,2.35
2023-03-26T19:56:35.257Z,2.30
2023-03-26T19:59:05.570Z,2.45
2023-03-26T20:01:36.492Z,2.10
2023-03-26T20:04:07.845Z,2.05
2023-03-26T20:06:43.050Z,2.50
2023-03-26T20:09:14.505Z,2.03
2023-03-26T20:11:43.003Z,2.15
2023-03-26T20:14:20.364Z,1.90
2023-03-26T20:16:50.830Z,2.03
2023-03-26T20:19:19.332Z,2.03
2023-03-26T20:21:47.632Z,1.90
2023-03-26T20:24:18.336Z,2.03
2023-03-26T20:26:47.642Z,1.55
2023-03-26T20:29:16.761Z,1.77
2023-03-26T20:31:46.258Z,1.70
2023-03-26T20:34:19.973Z,1.70
2023-03-26T20:36:54.308Z,2.00
2023-03-26T20:39:23.816Z,1.85
2023-03-26T20:41:53.569Z,2.13
2023-03-26T20:44:22.799Z,1.83
2023-03-26T20:46:52.429Z,1.52
2023-03-26T20:49:22.940Z,2.05
2023-03-26T20:51:51.237Z,1.60
2023-03-26T20:54:21.820Z,2.30
2023-03-26T20:56:50.250Z,2.05
2023-03-26T20:59:22.289Z,1.77
2023-03-26T21:01:51.509Z,1.77
2023-03-26T21:04:22.797Z,2.10
2023-03-26T21:06:53.210Z,2.22
2023-03-26T21:09:25.197Z,2.35
2023-03-26T21:12:01.891Z,2.20
2023-03-26T21:14:39.216Z,1.80
2023-03-26T21:17:10.041Z,2.35
2023-03-26T21:19:41.377Z,2.25
2023-03-26T21:22:25.826Z,1.85
2023-03-26T21:25:06.980Z,2.10
2023-03-26T21:27:47.359Z,2.08
2023-03-26T21:30:17.799Z,2.30
2023-03-26T21:32:47.617Z,1.90
2023-03-26T21:35:19.007Z,2.20
2023-03-26T21:37:49.147Z,2.00
2023-03-26T21:40:19.788Z,2.38
2023-03-26T21:42:50.892Z,1.80
2023-03-26T21:45:21.711Z,2.30
2023-03-26T21:47:51.560Z,1.88
2023-03-26T21:50:24.466Z,2.00
2023-03-26T21:52:53.824Z,2.38
2023-03-26T21:55:25.164Z,2.00
2023-03-26T21:58:15.186Z,2.15
2023-03-26T22:00:51.755Z,2.55
2023-03-26T22:03:26.918Z,2.15
2023-03-26T22:06:05.174Z,2.08
2023-03-26T22:08:39.866Z,2.35
2023-03-26T22:11:09.511Z,2.17
2023-03-26T22:13:38.988Z,2.15
2023-03-26T22:16:09.440Z,2.03
2023-03-26T22:18:38.073Z,1.92
2023-03-26T22:21:08.867Z,1.73
2023-03-26T22:23:38.466Z,2.30
2023-03-26T22:26:07.934Z,1.92
2023-03-26T22:28:37.160Z,2.00
2023-03-26T22:31:09.658Z,2.30
2023-03-26T22:33:40.003Z,1.77
2023-03-26T22:36:23.085Z,2.30
2023-03-26T22:38:54.825Z,1.85
2023-03-26T22:41:23.644Z,1.67
2023-03-26T22:43:54.616Z,1.70
2023-03-26T22:46:24.278Z,1.95
2023-03-26T22:48:52.703Z,1.70
2023-03-26T22:51:22.445Z,1.17
2023-03-26T22:53:50.890Z,2.00
2023-03-26T22:56:19.233Z,1.63
2023-03-26T22:58:48.352Z,1.55
2023-03-26T23:01:20.394Z,1.52
2023-03-26T23:03:48.820Z,1.50
2023-03-26T23:06:17.802Z,1.10
2023-03-26T23:08:47.453Z,1.48
2023-03-26T23:11:18.138Z,1.42
2023-03-26T23:13:47.822Z,1.75
2023-03-26T23:16:17.954Z,2.03
2023-03-26T23:18:46.733Z,2.05
2023-03-26T23:21:16.773Z,1.70
2023-03-26T23:23:47.001Z,1.80
2023-03-26T23:26:15.549Z,2.00
2023-03-26T23:28:44.307Z,1.95
2023-03-26T23:31:14.224Z,1.00
2023-03-26T23:33:46.180Z,1.15
2023-03-26T23:36:18.103Z,1.33
2023-03-26T23:38:49.776Z,1.40
2023-03-26T23:41:21.598Z,1.10
2023-03-26T23:43:55.604Z,0.90
2023-03-26T23:46:30.188Z,0.93
2023-03-26T23:49:02.474Z,1.02
2023-03-26T23:51:31.589Z,0.90
2023-03-26T23:54:02.364Z,1.13
2023-03-26T23:56:31.858Z,1.17
2023-03-26T23:59:00.791Z,1.10
